首页
METAR-TAF:

METAR-TAF

机场 :

通孔廷国际机场

德古斯加巴, 洪都拉斯

纬度: 14-03N, 经度: 087-13W, 海拔: 994米

当前天气观测

该预报发布于21分钟前的18:00 UTC
风速10节,风向,有时为20节阵风
温度 28°C
湿度 35%
气压 1019 hPa
能见度10公里或以上
少量云层高于3000英尺
散云层高于25000英尺

METAR: MHTG 031800Z 36010G20KT 9999 FEW030 SCT250 28/11 Q1019 A3009 NOSIG

时间: 12:21 (18:21 UTC)

预报

该预报发布于2小时和31分钟前的15:50 UTC
预报有效从03日的 18点(UTC)到 04日的 18点(UTC)
风速13节,风向
能见度10公里或以上
少量云层高于3200英尺
成为
从 04日的 04点(UTC)到 04日的 06点(UTC)
风速3节,风向
少量云层高于800英尺
散云层高于2600英尺
几率 30%
从 04日的 10点(UTC)到 04日的 12点(UTC)
能見度: 8000
少量云层高于600英尺
多云层高于2600英尺
附近有阵雨
成为
从 04日的 14点(UTC)到 04日的 16点(UTC)
风速13节,风向北转东北
能见度10公里或以上
少量云层高于2800英尺

TAF: MHTG 031550Z 0318/0418 01013KT 9999 FEW032 TX29/0321Z TN16/0410Z BECMG 0404/0406 36003KT FEW008 SCT026 PROB30 0410/0412 8000 VCSH FEW006 BKN026 BECMG 0414/0416 02013KT 9999 NSW FEW028

超过4000个机场的气象观测和天气预报(METAR&TAF报告)。

可查询的气象台以黄色和红色小点在地图上表示。

将鼠标移到小点上方,可查看气象台名称。

然后点击查看天气观测和预报。

如需切换地图:点击带黑十字的绿色按钮放大地图;点击带横线的绿色按钮缩小地图;或者点击绿色箭头查看邻近地区的地图。


METAR-TAF: